Time;durP1;ratioP1;P1;durP2;ratioP2;P2;SDS_P1;SDS_P2;PMS_P1;PMS_P2;Temp;Humidity;BMP_temperature;BMP_pressure;BME280_temperature;BME280_humidity;BME280_pressure;Samples;Min_cycle;Max_cycle;Signal;HPM_P1;HPM_P2
2021/07/20 00:00:11;;;;;;;16.70;7.80;;;17.90;97.30;;;;;;4995131;28;20417;-82
2021/07/20 00:02:39;;;;;;;14.07;7.40;;;17.90;97.30;;;;;;4995745;28;20445;-82
2021/07/20 00:05:07;;;;;;;19.00;7.63;;;17.90;97.30;;;;;;4995263;28;20509;-82
2021/07/20 00:07:33;;;;;;;12.00;7.70;;;17.90;97.30;;;;;;4995250;28;20429;-82
2021/07/20 00:09:59;;;;;;;15.60;8.07;;;17.90;97.30;;;;;;4995126;28;20518;-82
2021/07/20 00:12:25;;;;;;;16.93;7.80;;;17.80;97.30;;;;;;4994907;28;20437;-82
2021/07/20 00:14:51;;;;;;;15.50;7.60;;;17.80;97.30;;;;;;4995044;28;20213;-82
2021/07/20 00:17:21;;;;;;;14.63;6.73;;;17.80;97.30;;;;;;4994837;28;20431;-82
2021/07/20 00:19:47;;;;;;;16.20;7.97;;;17.80;97.30;;;;;;4995255;28;20182;-82
2021/07/20 00:22:13;;;;;;;15.60;8.33;;;17.80;97.30;;;;;;4993973;28;20961;-82
2021/07/20 00:24:38;;;;;;;18.43;7.00;;;17.80;97.30;;;;;;4994590;28;20463;-82
2021/07/20 00:27:04;;;;;;;12.23;7.43;;;17.80;97.30;;;;;;4994244;28;20184;-83
2021/07/20 00:29:29;;;;;;;16.20;8.00;;;17.80;97.30;;;;;;4994589;28;20205;-83
2021/07/20 00:31:55;;;;;;;12.93;7.13;;;17.80;97.30;;;;;;4993896;28;20237;-82
2021/07/20 00:34:21;;;;;;;15.67;8.27;;;17.80;97.30;;;;;;4993703;28;20185;-82
2021/07/20 00:36:46;;;;;;;15.03;8.50;;;17.80;97.30;;;;;;4994305;28;20607;-82
2021/07/20 00:39:12;;;;;;;11.07;7.33;;;17.80;97.30;;;;;;4993862;28;20228;-82
2021/07/20 00:41:37;;;;;;;13.60;7.70;;;17.70;97.30;;;;;;4993614;28;20213;-82
2021/07/20 00:44:03;;;;;;;16.43;8.20;;;17.70;97.30;;;;;;4994137;28;20201;-82
2021/07/20 00:46:29;;;;;;;22.73;7.80;;;17.70;97.30;;;;;;4993941;28;20193;-82
2021/07/20 00:48:54;;;;;;;16.37;7.90;;;17.70;97.30;;;;;;4994373;28;20170;-81
2021/07/20 00:51:20;;;;;;;14.83;7.57;;;17.70;97.30;;;;;;4995252;28;20194;-83
2021/07/20 00:53:46;;;;;;;14.47;7.53;;;17.70;97.30;;;;;;4994209;28;20213;-82
2021/07/20 00:56:12;;;;;;;18.70;8.10;;;17.70;97.30;;;;;;4994328;28;20170;-82
2021/07/20 00:58:38;;;;;;;14.30;7.60;;;17.60;97.30;;;;;;4995010;28;20499;-82
2021/07/20 01:01:04;;;;;;;24.33;9.03;;;17.60;97.30;;;;;;4994203;28;20284;-82
2021/07/20 01:03:31;;;;;;;17.83;8.73;;;17.60;97.30;;;;;;4995096;28;20945;-84
2021/07/20 01:05:56;;;;;;;15.93;7.73;;;17.60;97.30;;;;;;4997817;28;20197;-82
2021/07/20 01:08:23;;;;;;;17.20;7.60;;;17.60;97.30;;;;;;4997768;28;20482;-82
2021/07/20 01:10:51;;;;;;;14.80;8.27;;;17.60;97.30;;;;;;4998321;28;20243;-82
2021/07/20 01:13:18;;;;;;;17.10;8.27;;;17.60;97.30;;;;;;4996741;28;20413;-82
2021/07/20 01:15:44;;;;;;;22.20;7.97;;;17.60;97.30;;;;;;4995934;28;20791;-83
2021/07/20 01:18:10;;;;;;;12.97;6.83;;;17.60;97.30;;;;;;4994152;28;20433;-83
2021/07/20 01:20:36;;;;;;;16.53;7.80;;;17.50;97.30;;;;;;4993785;28;20436;-83
2021/07/20 01:23:19;;;;;;;20.40;8.70;;;17.50;97.30;;;;;;4993971;28;20583;-83
2021/07/20 01:25:45;;;;;;;16.50;8.47;;;17.50;97.30;;;;;;4994048;28;20209;-82
2021/07/20 01:28:17;;;;;;;16.23;8.53;;;17.40;97.30;;;;;;4993188;28;20527;-83
2021/07/20 01:30:44;;;;;;;18.53;9.30;;;17.40;97.30;;;;;;4993706;28;20787;-83
2021/07/20 01:33:12;;;;;;;18.20;8.90;;;17.40;97.30;;;;;;4993844;28;20961;-83
2021/07/20 01:35:39;;;;;;;20.50;8.93;;;17.40;97.30;;;;;;4994577;28;20428;-81
2021/07/20 01:38:08;;;;;;;15.77;7.97;;;17.40;97.30;;;;;;4993706;28;20428;-82
2021/07/20 01:40:35;;;;;;;23.40;9.30;;;17.40;97.30;;;;;;4994597;28;20460;-81
2021/07/20 01:43:02;;;;;;;18.17;8.70;;;17.30;97.30;;;;;;4995299;28;20435;-82
2021/07/20 01:45:30;;;;;;;19.60;8.97;;;17.40;97.30;;;;;;4994782;28;20465;-82
2021/07/20 01:47:57;;;;;;;13.00;7.90;;;17.30;97.30;;;;;;4997291;28;20417;-81
2021/07/20 01:50:23;;;;;;;14.73;8.37;;;17.30;97.30;;;;;;4996464;28;20421;-82
2021/07/20 01:52:49;;;;;;;19.57;9.83;;;17.30;97.30;;;;;;4996798;28;20894;-80
2021/07/20 01:55:15;;;;;;;18.13;9.33;;;17.20;97.30;;;;;;4998359;28;20445;-80
2021/07/20 01:57:42;;;;;;;20.50;10.20;;;17.20;97.30;;;;;;4996254;28;20221;-80
2021/07/20 02:00:15;;;;;;;20.57;9.57;;;17.10;97.30;;;;;;4997110;28;20417;-79
2021/07/20 02:03:02;;;;;;;18.00;8.83;;;17.10;97.30;;;;;;4998578;28;20437;-80
2021/07/20 02:08:27;;;;;;;15.27;8.83;;;17.00;97.30;;;;;;4994351;28;20456;-82
2021/07/20 02:10:57;;;;;;;20.10;8.30;;;17.00;97.30;;;;;;4993097;28;20441;-82
2021/07/20 02:13:25;;;;;;;18.20;8.07;;;16.90;97.30;;;;;;4992980;28;20412;-81
2021/07/20 02:15:52;;;;;;;16.73;8.60;;;16.90;97.30;;;;;;4994060;28;20412;-82
2021/07/20 02:18:22;;;;;;;22.87;9.30;;;16.90;97.30;;;;;;4993361;28;20420;-82
2021/07/20 02:20:47;;;;;;;16.40;8.67;;;16.90;97.30;;;;;;4994045;28;20513;-82
2021/07/20 02:23:14;;;;;;;21.23;9.00;;;16.90;97.30;;;;;;4993409;28;20508;-81
2021/07/20 02:25:41;;;;;;;19.70;9.30;;;16.90;97.30;;;;;;4992261;28;20210;-82
2021/07/20 02:28:08;;;;;;;18.77;9.20;;;16.90;97.30;;;;;;4992337;28;20423;-81
2021/07/20 02:30:34;;;;;;;17.13;8.87;;;16.80;97.30;;;;;;4992694;28;20468;-81
2021/07/20 02:33:01;;;;;;;14.40;8.20;;;16.80;97.30;;;;;;4996737;28;20440;-80
2021/07/20 02:35:28;;;;;;;21.63;8.97;;;16.90;97.30;;;;;;4997849;28;20421;-80
2021/07/20 02:37:56;;;;;;;26.37;9.30;;;16.90;97.30;;;;;;4996358;28;20425;-81
2021/07/20 02:40:23;;;;;;;16.47;8.67;;;16.80;97.30;;;;;;4996121;28;20427;-80
2021/07/20 02:42:51;;;;;;;20.30;9.77;;;16.90;97.30;;;;;;4996300;28;20914;-80
2021/07/20 02:45:18;;;;;;;21.43;9.20;;;16.80;97.30;;;;;;4998515;28;20977;-81
2021/07/20 02:47:45;;;;;;;17.77;8.90;;;16.90;97.30;;;;;;4996046;28;20476;-82
2021/07/20 02:50:15;;;;;;;17.87;8.00;;;16.80;97.30;;;;;;4997256;28;20512;-82
2021/07/20 02:52:44;;;;;;;16.60;7.73;;;16.90;97.30;;;;;;4996637;28;20440;-82
2021/07/20 02:55:12;;;;;;;19.20;9.47;;;16.90;97.30;;;;;;4996488;28;20981;-84
2021/07/20 02:57:41;;;;;;;15.43;8.47;;;16.90;97.30;;;;;;4995366;28;20444;-82
2021/07/20 03:00:09;;;;;;;16.53;9.37;;;16.90;97.30;;;;;;4996262;28;20440;-83
2021/07/20 03:02:37;;;;;;;24.33;8.73;;;16.80;97.30;;;;;;4995051;28;20587;-83
2021/07/20 03:05:05;;;;;;;20.23;9.00;;;16.80;97.30;;;;;;4995165;28;20510;-83
2021/07/20 03:07:33;;;;;;;19.87;8.57;;;16.80;97.30;;;;;;4995787;28;20421;-82
2021/07/20 03:10:00;;;;;;;18.77;8.70;;;16.80;97.30;;;;;;4995277;28;20801;-82
2021/07/20 03:12:28;;;;;;;15.20;8.37;;;16.80;97.30;;;;;;4995759;28;20530;-82
2021/07/20 03:14:55;;;;;;;15.57;7.60;;;16.80;97.30;;;;;;4996978;28;20457;-82
2021/07/20 03:17:24;;;;;;;21.53;9.43;;;16.70;97.30;;;;;;4997406;28;20436;-81
2021/07/20 03:19:51;;;;;;;16.60;8.83;;;16.70;97.30;;;;;;4997278;28;20423;-81
2021/07/20 03:22:19;;;;;;;18.73;8.87;;;16.70;97.30;;;;;;4996590;28;20516;-82
2021/07/20 03:24:46;;;;;;;16.23;8.53;;;16.70;97.30;;;;;;4997672;28;20524;-82
2021/07/20 03:27:12;;;;;;;20.13;10.37;;;16.70;97.30;;;;;;4995544;28;20509;-82
2021/07/20 03:29:42;;;;;;;18.43;8.67;;;16.70;97.30;;;;;;4996048;28;20472;-81
2021/07/20 03:32:20;;;;;;;17.90;8.97;;;16.70;97.30;;;;;;4995252;28;20482;-81
2021/07/20 03:34:46;;;;;;;16.30;8.30;;;16.70;97.30;;;;;;4996377;28;20416;-81
2021/07/20 03:37:12;;;;;;;20.47;9.53;;;16.60;97.30;;;;;;4996034;28;20424;-82
2021/07/20 03:39:40;;;;;;;20.30;8.93;;;16.60;97.30;;;;;;4998119;28;20413;-82
2021/07/20 03:42:08;;;;;;;17.37;8.70;;;16.60;97.30;;;;;;4997171;28;20441;-82
2021/07/20 03:44:35;;;;;;;18.07;9.87;;;16.60;97.30;;;;;;4996790;28;20452;-83
2021/07/20 03:47:01;;;;;;;22.30;9.50;;;16.60;97.30;;;;;;4994511;28;20417;-83
2021/07/20 03:49:28;;;;;;;29.73;10.27;;;16.60;97.30;;;;;;4995769;28;20896;-83
2021/07/20 03:52:00;;;;;;;15.43;8.57;;;16.60;97.30;;;;;;4997461;28;20441;-82
2021/07/20 03:54:28;;;;;;;22.50;9.13;;;16.60;97.30;;;;;;4997624;28;20425;-82
2021/07/20 03:56:54;;;;;;;16.73;7.70;;;16.60;97.30;;;;;;4996580;28;20421;-82
2021/07/20 03:59:22;;;;;;;19.63;8.60;;;16.60;97.30;;;;;;4996334;28;20418;-82
2021/07/20 04:01:50;;;;;;;19.50;8.60;;;16.60;97.30;;;;;;4995465;28;20480;-83
2021/07/20 04:04:19;;;;;;;16.10;8.67;;;16.50;97.30;;;;;;4996247;28;20449;-82
2021/07/20 04:06:46;;;;;;;20.10;10.10;;;16.50;97.30;;;;;;4995298;28;20462;-82
2021/07/20 04:09:12;;;;;;;16.50;8.97;;;16.50;97.30;;;;;;4996078;28;20429;-83
2021/07/20 04:11:39;;;;;;;22.93;8.90;;;16.50;97.30;;;;;;4995651;28;20443;-83
2021/07/20 04:14:06;;;;;;;18.50;9.30;;;16.50;97.30;;;;;;4994724;28;20425;-82
2021/07/20 04:16:33;;;;;;;21.13;9.47;;;16.50;97.30;;;;;;4995231;28;20531;-82
2021/07/20 04:18:59;;;;;;;19.60;9.07;;;16.50;97.30;;;;;;4994507;28;20934;-82
2021/07/20 04:21:26;;;;;;;18.03;8.83;;;16.50;97.30;;;;;;4997470;28;20448;-82
2021/07/20 04:23:54;;;;;;;20.87;8.43;;;16.50;97.30;;;;;;4996231;28;20413;-82
2021/07/20 04:26:20;;;;;;;17.00;8.10;;;16.50;97.30;;;;;;4995072;28;20421;-82
2021/07/20 04:28:45;;;;;;;18.80;8.80;;;16.50;97.30;;;;;;4996261;28;20952;-82
2021/07/20 04:31:14;;;;;;;19.10;8.60;;;16.50;97.30;;;;;;4995028;28;20465;-83
2021/07/20 04:33:46;;;;;;;17.17;8.80;;;16.50;97.30;;;;;;5036915;23;20263;-89
2021/07/20 04:37:06;;;;;;;19.20;8.80;;;16.50;97.30;;;;;;5015248;28;20426;-89
2021/07/20 04:40:05;;;;;;;26.37;8.50;;;16.50;97.30;;;;;;4959896;28;20430;-88
2021/07/20 04:46:25;;;;;;;19.87;9.47;;;16.50;97.30;;;;;;4973068;28;20456;-89
2021/07/20 04:52:34;;;;;;;21.23;9.00;;;16.40;97.30;;;;;;4954477;29;20497;-89
2021/07/20 04:56:16;;;;;;;16.10;8.77;;;16.40;97.30;;;;;;4927769;29;20431;-88
2021/07/20 04:59:03;;;;;;;18.57;8.47;;;16.40;97.30;;;;;;4887544;29;20433;-88
2021/07/20 05:01:46;;;;;;;19.27;8.00;;;16.40;97.30;;;;;;4884560;29;20442;-88
2021/07/20 05:04:45;;;;;;;16.27;8.70;;;16.40;97.30;;;;;;4898231;29;20468;-89
2021/07/20 05:13:55;;;;;;;15.27;8.70;;;16.40;97.30;;;;;;4937355;29;20993;-89
2021/07/20 05:17:16;;;;;;;;;;;;;;;;;;;;;
2021/07/20 05:21:05;;;;;;;;;;;;;;;;;;;;;
2021/07/20 05:33:42;;;;;;;15.90;8.50;;;16.50;97.30;;;;;;4952766;23;20628;-83
2021/07/20 05:36:08;;;;;;;19.00;9.00;;;16.50;97.30;;;;;;5051519;28;20457;-83
2021/07/20 05:38:35;;;;;;;23.70;8.33;;;16.60;97.30;;;;;;5052956;28;20468;-83
2021/07/20 05:41:00;;;;;;;16.80;8.57;;;16.60;97.30;;;;;;5037221;28;20463;-83
2021/07/20 05:43:28;;;;;;;14.07;8.00;;;16.60;97.30;;;;;;5015415;28;20431;-83
2021/07/20 05:45:58;;;;;;;18.53;7.97;;;16.60;97.30;;;;;;5022509;28;20458;-83
2021/07/20 05:48:26;;;;;;;16.20;8.00;;;16.60;97.30;;;;;;5021190;28;20438;-83
2021/07/20 05:50:54;;;;;;;13.13;8.30;;;16.60;97.30;;;;;;5042677;28;20450;-83
2021/07/20 05:53:21;;;;;;;19.70;8.27;;;16.70;97.30;;;;;;5031431;28;20411;-83
2021/07/20 05:55:51;;;;;;;20.40;8.23;;;16.70;97.30;;;;;;5017545;28;20427;-83
2021/07/20 05:58:21;;;;;;;20.17;8.40;;;16.70;97.30;;;;;;5022009;28;20419;-83
2021/07/20 06:00:48;;;;;;;20.10;9.10;;;16.70;97.30;;;;;;5031317;28;20466;-83
2021/07/20 06:03:16;;;;;;;14.43;7.90;;;16.80;97.30;;;;;;5017454;28;20471;-83
2021/07/20 06:05:44;;;;;;;15.27;9.00;;;16.80;97.30;;;;;;5013266;28;20471;-82
2021/07/20 06:08:17;;;;;;;17.30;8.97;;;16.80;97.30;;;;;;5049179;28;20958;-83
2021/07/20 06:10:47;;;;;;;14.50;7.93;;;16.80;97.30;;;;;;5046189;28;20501;-83
2021/07/20 06:13:14;;;;;;;11.70;7.60;;;16.90;97.30;;;;;;5032268;28;20463;-83
2021/07/20 06:15:42;;;;;;;18.63;8.40;;;16.90;97.30;;;;;;5032653;28;20423;-83
2021/07/20 06:18:08;;;;;;;13.13;7.33;;;16.90;97.30;;;;;;5012832;28;20424;-83
2021/07/20 06:20:36;;;;;;;13.73;7.77;;;16.90;97.30;;;;;;5027670;28;20446;-83
2021/07/20 06:23:03;;;;;;;15.50;7.67;;;17.00;97.30;;;;;;5030164;28;20602;-83
2021/07/20 06:25:29;;;;;;;12.20;6.93;;;17.00;97.30;;;;;;5018326;28;20486;-83
2021/07/20 06:27:57;;;;;;;12.60;7.10;;;17.00;97.30;;;;;;5010712;28;20482;-83
2021/07/20 06:30:23;;;;;;;13.23;7.10;;;17.10;97.30;;;;;;5025251;28;20482;-83
2021/07/20 06:32:51;;;;;;;16.57;7.40;;;17.10;97.30;;;;;;5019397;28;20455;-83
2021/07/20 06:35:19;;;;;;;13.03;5.80;;;17.20;97.30;;;;;;5019514;28;20701;-84
2021/07/20 06:37:45;;;;;;;15.10;6.87;;;17.20;97.30;;;;;;5031388;28;20408;-84
2021/07/20 06:40:15;;;;;;;12.37;6.30;;;17.20;97.30;;;;;;5045670;28;20426;-83
2021/07/20 06:42:42;;;;;;;11.00;5.90;;;17.30;97.30;;;;;;5030287;28;20451;-83
2021/07/20 06:45:08;;;;;;;16.53;6.83;;;17.30;97.30;;;;;;5025389;28;20525;-83
2021/07/20 06:47:39;;;;;;;11.83;6.00;;;17.40;97.30;;;;;;5010704;28;20748;-84
2021/07/20 06:50:10;;;;;;;11.27;6.13;;;17.40;97.30;;;;;;5025815;28;20431;-84
2021/07/20 06:52:36;;;;;;;12.93;6.13;;;17.50;97.30;;;;;;5030114;28;20927;-84
2021/07/20 06:55:03;;;;;;;8.87;6.20;;;17.50;97.30;;;;;;5029503;28;20449;-83
2021/07/20 06:57:30;;;;;;;13.97;6.97;;;17.60;97.30;;;;;;5038687;28;20441;-84
2021/07/20 06:59:58;;;;;;;19.80;7.57;;;17.60;97.30;;;;;;5040337;28;20431;-84
2021/07/20 07:02:26;;;;;;;9.63;5.90;;;17.60;97.30;;;;;;5029413;28;20797;-84
2021/07/20 07:05:05;;;;;;;13.47;6.03;;;17.70;97.30;;;;;;5044943;28;20816;-84
2021/07/20 07:07:33;;;;;;;9.20;5.50;;;17.70;97.30;;;;;;5010858;28;20428;-84
2021/07/20 07:10:01;;;;;;;10.57;5.77;;;17.70;97.30;;;;;;5025814;28;20423;-84
2021/07/20 07:12:28;;;;;;;15.40;6.23;;;17.80;97.30;;;;;;5031703;28;21010;-84
2021/07/20 07:14:55;;;;;;;13.73;5.70;;;17.80;97.30;;;;;;5050278;28;20422;-84
2021/07/20 07:17:21;;;;;;;15.60;6.00;;;17.90;97.30;;;;;;5030111;28;20431;-84
2021/07/20 07:19:51;;;;;;;9.23;5.17;;;17.90;97.30;;;;;;5029740;28;20423;-84
2021/07/20 07:22:20;;;;;;;9.00;5.67;;;18.00;97.30;;;;;;5022429;28;20498;-84
2021/07/20 07:24:46;;;;;;;12.30;5.20;;;18.00;97.30;;;;;;5010256;28;20460;-83
2021/07/20 07:27:13;;;;;;;11.67;5.60;;;18.10;97.30;;;;;;5026709;28;20561;-84
2021/07/20 07:29:41;;;;;;;10.10;5.13;;;18.10;97.30;;;;;;5041165;28;20415;-84
2021/07/20 07:32:07;;;;;;;13.60;4.83;;;18.10;97.30;;;;;;5031953;28;20438;-84
2021/07/20 07:34:33;;;;;;;7.07;4.50;;;18.20;97.30;;;;;;5024135;28;20487;-84
2021/07/20 07:36:59;;;;;;;9.93;4.80;;;18.20;97.30;;;;;;5014743;28;20250;-84
2021/07/20 07:39:26;;;;;;;12.63;5.43;;;18.20;97.30;;;;;;5039014;28;20528;-84
2021/07/20 07:41:53;;;;;;;10.50;5.27;;;18.10;97.30;;;;;;5053365;28;20793;-84
2021/07/20 07:44:20;;;;;;;11.03;5.73;;;18.10;97.30;;;;;;5053018;28;20881;-84
2021/07/20 07:46:46;;;;;;;10.27;4.47;;;18.10;97.30;;;;;;5025877;28;20420;-84
2021/07/20 07:49:13;;;;;;;10.30;5.50;;;18.10;97.30;;;;;;5054714;28;20689;-84
2021/07/20 07:51:42;;;;;;;9.80;4.70;;;18.10;97.10;;;;;;5032339;28;20816;-83
2021/07/20 07:54:08;;;;;;;8.63;4.80;;;18.00;97.30;;;;;;5029415;28;20431;-83
2021/07/20 07:56:34;;;;;;;18.37;5.20;;;18.00;96.50;;;;;;5018202;28;20420;-83
2021/07/20 07:59:01;;;;;;;11.23;5.00;;;18.00;97.20;;;;;;5021458;28;20425;-83
2021/07/20 08:01:28;;;;;;;8.37;4.63;;;18.00;97.30;;;;;;5041637;28;20454;-83
2021/07/20 08:03:56;;;;;;;10.47;4.90;;;18.00;97.30;;;;;;5032454;28;20959;-82
2021/07/20 08:06:25;;;;;;;12.30;5.20;;;18.00;96.40;;;;;;5023751;28;20941;-83
2021/07/20 08:08:54;;;;;;;7.23;5.10;;;18.10;97.30;;;;;;5018696;28;20414;-83
2021/07/20 08:11:23;;;;;;;9.37;5.60;;;18.10;97.30;;;;;;5032316;28;20448;-83
2021/07/20 08:13:49;;;;;;;13.00;5.57;;;18.10;97.30;;;;;;5041451;28;20452;-83
2021/07/20 08:16:15;;;;;;;11.50;5.00;;;18.20;97.30;;;;;;5027980;28;20426;-83
2021/07/20 08:18:43;;;;;;;9.00;4.60;;;18.20;97.20;;;;;;5018453;28;20436;-83
2021/07/20 08:21:08;;;;;;;10.00;4.50;;;18.20;96.40;;;;;;5023931;28;20475;-82
2021/07/20 08:23:35;;;;;;;7.43;5.13;;;18.20;95.50;;;;;;5029342;28;20516;-83
2021/07/20 08:26:07;;;;;;;12.27;5.80;;;18.20;96.30;;;;;;5023093;28;20208;-83
2021/07/20 08:28:50;;;;;;;10.83;5.30;;;18.20;95.70;;;;;;5032002;28;20430;-83
2021/07/20 08:31:17;;;;;;;13.37;4.97;;;18.30;95.20;;;;;;5013356;28;20957;-83
2021/07/20 08:33:45;;;;;;;11.53;5.20;;;18.30;95.10;;;;;;5024546;28;21141;-82
2021/07/20 08:36:14;;;;;;;8.50;4.80;;;18.30;94.80;;;;;;5032197;28;20422;-82
2021/07/20 08:38:42;;;;;;;16.40;6.00;;;18.30;94.10;;;;;;5031545;28;20441;-83
2021/07/20 08:41:19;;;;;;;8.60;5.00;;;18.30;93.60;;;;;;5039110;28;20820;-83
2021/07/20 08:43:51;;;;;;;10.10;5.07;;;18.40;94.80;;;;;;5030660;28;20446;-82
2021/07/20 08:46:31;;;;;;;9.83;5.00;;;18.40;96.20;;;;;;5027757;28;20546;-83
2021/07/20 08:49:25;;;;;;;8.90;5.90;;;18.50;94.70;;;;;;5016731;28;20422;-83
2021/07/20 08:51:50;;;;;;;10.10;4.90;;;18.60;94.80;;;;;;5022715;28;20443;-84
2021/07/20 08:54:28;;;;;;;15.70;5.50;;;18.70;93.50;;;;;;5021765;28;20428;-83
2021/07/20 08:57:00;;;;;;;6.70;4.40;;;18.70;94.10;;;;;;5031582;28;20182;-83
2021/07/20 08:59:37;;;;;;;8.93;4.83;;;18.80;92.70;;;;;;5019497;28;20422;-82
2021/07/20 09:02:34;;;;;;;26.47;6.10;;;18.80;93.40;;;;;;5026135;28;20450;-82
2021/07/20 09:05:25;;;;;;;7.93;4.60;;;18.90;94.20;;;;;;5013094;28;20467;-82
2021/07/20 09:08:17;;;;;;;9.40;4.73;;;18.90;92.30;;;;;;5025425;28;20435;-83
2021/07/20 09:11:09;;;;;;;6.90;4.10;;;18.90;91.10;;;;;;5031862;28;20462;-83
2021/07/20 09:13:36;;;;;;;9.90;4.40;;;19.00;92.50;;;;;;5031187;28;20971;-82
2021/07/20 09:16:20;;;;;;;7.70;4.50;;;19.00;89.60;;;;;;5026432;28;20454;-82
2021/07/20 09:18:52;;;;;;;8.87;5.00;;;19.00;90.90;;;;;;5013610;28;20474;-83
2021/07/20 09:21:20;;;;;;;9.37;4.93;;;19.10;91.10;;;;;;5012209;28;20441;-82
2021/07/20 09:24:03;;;;;;;10.37;5.03;;;19.10;90.30;;;;;;5013476;28;20963;-83
2021/07/20 09:26:35;;;;;;;7.40;5.10;;;19.10;91.30;;;;;;5024872;28;20802;-84
2021/07/20 09:29:07;;;;;;;12.03;6.00;;;19.20;90.10;;;;;;5032217;28;20434;-83
2021/07/20 09:31:43;;;;;;;10.80;5.33;;;19.20;90.00;;;;;;5042684;28;20542;-83
2021/07/20 09:34:25;;;;;;;9.53;5.37;;;19.20;89.80;;;;;;5011252;28;20483;-83
2021/07/20 09:36:59;;;;;;;13.63;4.90;;;19.20;90.10;;;;;;5011756;28;20423;-83
2021/07/20 09:39:49;;;;;;;9.37;5.87;;;19.20;90.30;;;;;;5024325;28;20454;-83
2021/07/20 09:42:37;;;;;;;14.00;5.47;;;19.30;90.60;;;;;;5030830;28;20439;-83
2021/07/20 09:45:12;;;;;;;11.80;5.30;;;19.40;90.50;;;;;;5029750;28;20519;-83
2021/07/20 09:47:43;;;;;;;7.23;5.30;;;19.30;90.00;;;;;;5010774;28;20422;-83
2021/07/20 09:50:16;;;;;;;8.60;5.40;;;19.30;90.80;;;;;;5022837;28;20473;-83
2021/07/20 09:53:17;;;;;;;8.47;5.67;;;19.30;90.40;;;;;;5011929;28;20449;-83
2021/07/20 09:56:09;;;;;;;14.70;5.20;;;19.40;89.70;;;;;;5011803;28;20436;-82
2021/07/20 09:58:37;;;;;;;11.53;5.77;;;19.50;90.10;;;;;;5021892;28;20434;-83
2021/07/20 10:01:37;;;;;;;10.33;5.90;;;19.50;89.00;;;;;;5030055;28;20534;-83
2021/07/20 10:04:15;;;;;;;11.30;5.83;;;19.60;89.10;;;;;;5019607;28;20791;-83
2021/07/20 10:06:48;;;;;;;9.50;5.77;;;19.60;90.00;;;;;;5013353;28;20975;-83
2021/07/20 10:09:38;;;;;;;13.60;6.60;;;19.70;89.10;;;;;;5029676;28;20435;-83
2021/07/20 10:12:15;;;;;;;12.10;5.93;;;19.70;89.80;;;;;;5030178;28;20439;-83
2021/07/20 10:15:00;;;;;;;11.77;5.80;;;19.80;89.10;;;;;;5030449;28;20403;-82
2021/07/20 10:17:31;;;;;;;10.77;5.73;;;19.80;89.90;;;;;;5030338;28;20427;-83
2021/07/20 10:20:16;;;;;;;13.63;5.93;;;19.90;88.60;;;;;;5025786;28;20423;-83
2021/07/20 10:22:48;;;;;;;8.60;5.80;;;19.90;88.70;;;;;;5019569;28;20467;-83
2021/07/20 10:25:22;;;;;;;9.37;5.03;;;20.00;90.10;;;;;;5024563;28;20474;-83
2021/07/20 10:27:57;;;;;;;9.70;5.10;;;20.00;89.80;;;;;;5011867;28;20438;-83
2021/07/20 10:30:25;;;;;;;17.43;4.97;;;20.00;87.00;;;;;;5020026;28;20437;-82
2021/07/20 10:35:59;;;;;;;10.07;5.97;;;20.20;87.80;;;;;;5010604;28;20468;-83
2021/07/20 10:38:33;;;;;;;8.57;4.90;;;20.40;87.80;;;;;;5011092;28;20416;-83
2021/07/20 10:41:03;;;;;;;9.00;5.03;;;20.50;88.80;;;;;;5011062;28;20948;-83
2021/07/20 10:43:33;;;;;;;7.30;4.90;;;20.50;86.20;;;;;;5010881;28;20413;-82
2021/07/20 10:46:04;;;;;;;9.07;5.03;;;20.50;86.50;;;;;;5010933;28;20452;-83
2021/07/20 10:48:37;;;;;;;14.20;5.80;;;20.50;85.80;;;;;;5010331;28;20496;-82
2021/07/20 10:51:10;;;;;;;11.80;5.47;;;20.50;87.30;;;;;;5012570;28;20928;-82
2021/07/20 10:53:54;;;;;;;9.17;6.03;;;20.50;86.70;;;;;;5010701;28;20499;-81
2021/07/20 10:57:00;;;;;;;7.37;4.50;;;20.40;85.20;;;;;;5011188;28;20420;-82
2021/07/20 10:59:52;;;;;;;9.47;5.33;;;20.30;84.90;;;;;;5010894;28;20466;-81
2021/07/20 11:02:23;;;;;;;9.20;5.30;;;20.20;85.40;;;;;;5010525;28;20436;-82
2021/07/20 11:05:01;;;;;;;7.97;5.33;;;20.10;86.30;;;;;;5010745;28;20448;-82
2021/07/20 11:07:45;;;;;;;8.80;5.23;;;20.10;87.80;;;;;;5014588;28;20422;-82
2021/07/20 11:10:22;;;;;;;13.60;5.77;;;20.20;86.80;;;;;;5014314;28;20442;-82
2021/07/20 11:12:54;;;;;;;8.30;4.80;;;20.20;87.20;;;;;;5014593;28;20474;-81
2021/07/20 11:15:21;;;;;;;11.87;5.30;;;20.30;86.50;;;;;;5014674;28;20408;-82
2021/07/20 11:17:49;;;;;;;10.83;5.60;;;20.30;86.70;;;;;;5014412;28;20420;-81
2021/07/20 11:20:19;;;;;;;8.40;5.50;;;20.40;86.30;;;;;;5014292;28;20420;-82
2021/07/20 11:22:45;;;;;;;9.57;5.57;;;20.50;86.60;;;;;;5014657;28;20519;-82
2021/07/20 11:25:12;;;;;;;10.20;5.30;;;20.50;87.10;;;;;;5013702;28;20451;-81
2021/07/20 11:27:42;;;;;;;9.40;5.27;;;20.60;87.00;;;;;;5014358;28;20478;-81
2021/07/20 11:30:12;;;;;;;8.97;5.30;;;20.60;87.20;;;;;;5014570;28;20419;-82
2021/07/20 11:32:42;;;;;;;8.90;5.43;;;20.70;86.70;;;;;;5015701;28;20941;-82
2021/07/20 11:35:19;;;;;;;11.50;5.30;;;20.60;85.10;;;;;;5014345;28;20471;-81
2021/07/20 11:37:50;;;;;;;8.97;4.87;;;20.70;86.30;;;;;;5013813;28;20432;-82
2021/07/20 11:40:22;;;;;;;11.17;5.17;;;20.70;85.40;;;;;;5014480;28;20404;-83
2021/07/20 11:43:03;;;;;;;10.17;4.90;;;20.60;84.90;;;;;;5014043;28;20406;-81
2021/07/20 11:45:37;;;;;;;10.00;5.07;;;20.70;85.10;;;;;;5014230;28;20448;-81
2021/07/20 11:48:10;;;;;;;6.83;4.77;;;20.70;83.90;;;;;;5014364;28;20400;-81
2021/07/20 11:51:00;;;;;;;11.93;4.70;;;20.80;84.40;;;;;;5013751;28;20404;-83
2021/07/20 11:53:48;;;;;;;8.23;5.00;;;20.90;85.20;;;;;;5013270;28;20400;-81
2021/07/20 11:56:28;;;;;;;8.67;4.90;;;21.00;84.90;;;;;;5014224;28;20443;-82
2021/07/20 11:59:15;;;;;;;13.17;5.93;;;21.00;85.30;;;;;;5013607;28;20448;-83
2021/07/20 12:02:18;;;;;;;7.50;5.63;;;21.00;86.70;;;;;;5013408;28;20475;-83
2021/07/20 12:05:17;;;;;;;9.67;4.80;;;21.10;85.00;;;;;;5013339;28;20871;-81
2021/07/20 12:07:54;;;;;;;7.50;4.60;;;21.00;84.50;;;;;;5013930;28;20424;-82
2021/07/20 12:10:39;;;;;;;7.07;4.47;;;21.10;86.10;;;;;;5013797;28;20416;-81
2021/07/20 12:13:09;;;;;;;9.20;4.97;;;21.20;83.60;;;;;;5027736;28;20422;-80
2021/07/20 12:15:37;;;;;;;9.63;5.53;;;21.10;83.80;;;;;;5034139;28;20925;-83
2021/07/20 12:18:04;;;;;;;6.93;4.33;;;21.10;84.90;;;;;;5033530;28;20899;-82
2021/07/20 12:20:31;;;;;;;11.83;4.77;;;21.20;85.40;;;;;;5033734;28;20419;-82
2021/07/20 12:22:58;;;;;;;7.20;4.93;;;21.30;84.10;;;;;;5035061;28;20783;-82
2021/07/20 12:25:25;;;;;;;6.20;4.20;;;21.50;83.80;;;;;;5033086;28;20474;-82
2021/07/20 12:27:53;;;;;;;7.03;4.60;;;21.70;83.50;;;;;;5033759;28;20912;-82
2021/07/20 12:30:22;;;;;;;6.90;4.30;;;21.80;83.40;;;;;;5023052;28;20422;-82
2021/07/20 12:32:49;;;;;;;9.10;4.47;;;21.90;84.30;;;;;;5013013;28;20502;-82
2021/07/20 12:35:19;;;;;;;8.93;4.53;;;22.00;83.20;;;;;;5013220;28;20559;-81
2021/07/20 12:38:08;;;;;;;6.70;4.60;;;22.00;86.10;;;;;;5013271;28;20421;-81
2021/07/20 12:40:37;;;;;;;7.57;4.60;;;22.00;83.40;;;;;;5020940;28;20514;-82
2021/07/20 12:43:11;;;;;;;5.90;4.20;;;21.90;80.90;;;;;;5032233;28;20431;-81
2021/07/20 12:45:40;;;;;;;8.00;4.70;;;21.70;82.00;;;;;;5016527;28;20542;-83
2021/07/20 12:48:25;;;;;;;8.07;4.80;;;21.70;84.90;;;;;;5032990;28;20506;-82
2021/07/20 12:50:55;;;;;;;5.83;4.00;;;21.90;82.60;;;;;;5032637;28;20442;-82
2021/07/20 12:53:21;;;;;;;8.30;4.20;;;22.10;86.50;;;;;;5032827;28;20427;-82
2021/07/20 12:55:47;;;;;;;6.40;3.90;;;22.30;83.00;;;;;;5032286;28;20423;-81
2021/07/20 12:58:17;;;;;;;5.00;4.10;;;22.50;82.80;;;;;;5033632;28;20504;-81
2021/07/20 13:00:43;;;;;;;6.50;3.57;;;22.60;81.70;;;;;;5032676;28;21035;-81
2021/07/20 13:03:10;;;;;;;5.83;4.40;;;22.60;81.30;;;;;;5032336;28;20494;-81
2021/07/20 13:05:43;;;;;;;4.70;4.07;;;22.40;79.40;;;;;;5032507;28;20459;-81
2021/07/20 13:08:12;;;;;;;7.93;4.60;;;22.20;80.50;;;;;;5030628;28;20418;-81
2021/07/20 13:10:38;;;;;;;7.60;3.90;;;22.10;81.00;;;;;;5032176;28;20517;-80
2021/07/20 13:13:06;;;;;;;6.77;4.87;;;22.00;80.80;;;;;;5032322;28;20416;-81
2021/07/20 13:15:32;;;;;;;6.30;4.27;;;21.90;80.80;;;;;;5031944;28;20426;-81
2021/07/20 13:18:00;;;;;;;6.90;4.50;;;21.80;80.30;;;;;;5032125;28;20828;-81
2021/07/20 13:20:28;;;;;;;13.73;4.90;;;21.70;81.30;;;;;;5031841;28;20430;-81
2021/07/20 13:22:55;;;;;;;6.63;4.00;;;21.60;80.90;;;;;;5032952;28;20422;-81
2021/07/20 13:25:22;;;;;;;7.20;4.37;;;21.50;80.40;;;;;;5032051;28;20994;-81
2021/07/20 13:27:50;;;;;;;6.07;3.90;;;21.40;80.40;;;;;;5032197;28;20796;-81
2021/07/20 13:30:23;;;;;;;6.50;4.50;;;21.40;80.80;;;;;;5031859;28;20431;-84
2021/07/20 13:32:50;;;;;;;4.80;3.50;;;21.40;81.20;;;;;;5031698;28;20419;-82
2021/07/20 13:35:17;;;;;;;5.07;3.60;;;21.40;79.90;;;;;;5031423;28;20473;-82